createdAt,value
2019-04-07T00:02:09.630Z,46.80
2019-04-07T00:04:38.988Z,46.27
2019-04-07T00:07:09.306Z,46.87
2019-04-07T00:09:38.833Z,46.40
2019-04-07T00:12:08.319Z,46.13
2019-04-07T00:14:37.981Z,48.20
2019-04-07T00:17:07.467Z,47.40
2019-04-07T00:19:36.906Z,48.83
2019-04-07T00:22:06.283Z,47.30
2019-04-07T00:24:36.516Z,48.67
2019-04-07T00:27:05.969Z,48.10
2019-04-07T00:29:36.616Z,50.17
2019-04-07T00:32:06.293Z,47.87
2019-04-07T00:34:36.833Z,48.03
2019-04-07T00:37:06.459Z,49.10
2019-04-07T00:39:36.427Z,50.50
2019-04-07T00:42:07.489Z,47.60
2019-04-07T00:44:37.030Z,49.50
2019-04-07T00:47:07.372Z,47.47
2019-04-07T00:49:37.431Z,49.87
2019-04-07T00:52:08.568Z,49.00
2019-04-07T00:54:38.064Z,48.43
2019-04-07T00:57:07.544Z,49.63
2019-04-07T00:59:37.296Z,50.33
2019-04-07T01:02:07.837Z,48.33
2019-04-07T01:04:37.523Z,47.53
2019-04-07T01:07:08.115Z,48.80
2019-04-07T01:09:37.737Z,50.40
2019-04-07T01:12:07.919Z,47.87
2019-04-07T01:14:37.999Z,50.23
2019-04-07T01:17:10.083Z,49.87
2019-04-07T01:19:39.806Z,48.57
2019-04-07T01:22:09.940Z,48.97
2019-04-07T01:24:39.498Z,49.67
2019-04-07T01:27:09.287Z,49.03
2019-04-07T01:29:38.800Z,48.57
2019-04-07T01:32:08.845Z,50.97
2019-04-07T01:34:39.504Z,51.80
2019-04-07T01:37:08.937Z,50.07
2019-04-07T01:39:39.467Z,51.80
2019-04-07T01:42:10.684Z,51.83
2019-04-07T01:44:44.617Z,51.73
2019-04-07T01:47:18.887Z,50.43
2019-04-07T01:50:03.060Z,52.20
2019-04-07T01:52:38.099Z,50.67
2019-04-07T01:55:26.842Z,51.07
2019-04-07T01:57:58.154Z,51.07
2019-04-07T02:00:45.691Z,51.20
2019-04-07T02:03:18.732Z,50.57
2019-04-07T02:05:58.392Z,52.40
2019-04-07T02:08:23.223Z,52.53
2019-04-07T02:10:55.056Z,52.23
2019-04-07T02:13:26.454Z,51.73
2019-04-07T02:15:57.777Z,53.77
2019-04-07T02:18:47.385Z,52.30
2019-04-07T02:21:24.995Z,51.53
2019-04-07T02:24:04.868Z,52.50
2019-04-07T02:26:39.046Z,50.40
2019-04-07T02:29:13.786Z,51.80
2019-04-07T02:32:02.374Z,54.33
2019-04-07T02:34:36.232Z,52.43
2019-04-07T02:37:10.134Z,52.47
2019-04-07T02:39:42.175Z,52.70
2019-04-07T02:42:30.399Z,53.23
2019-04-07T02:45:05.735Z,53.10
2019-04-07T02:47:37.370Z,52.50
2019-04-07T02:50:28.911Z,53.37
2019-04-07T02:53:16.261Z,51.03
2019-04-07T02:56:02.280Z,54.07
2019-04-07T02:58:36.358Z,52.77
2019-04-07T03:01:11.465Z,53.03
2019-04-07T03:03:59.914Z,54.27
2019-04-07T03:06:44.094Z,51.90
2019-04-07T03:09:15.857Z,53.60
2019-04-07T03:11:49.729Z,53.67
2019-04-07T03:14:21.575Z,53.87
2019-04-07T03:16:58.740Z,52.60
2019-04-07T03:19:31.882Z,53.87
2019-04-07T03:22:05.120Z,51.67
2019-04-07T03:24:36.919Z,52.77
2019-04-07T03:27:14.075Z,54.27
2019-04-07T03:29:49.435Z,54.20
2019-04-07T03:32:23.892Z,52.90
2019-04-07T03:35:04.876Z,53.07
2019-04-07T03:37:53.396Z,53.87
2019-04-07T03:40:30.284Z,53.90
2019-04-07T03:43:17.538Z,53.63
2019-04-07T03:46:06.028Z,55.70
2019-04-07T03:48:37.987Z,53.40
2019-04-07T03:51:09.294Z,55.47
2019-04-07T03:53:56.978Z,54.20
2019-04-07T03:56:28.462Z,53.77
2019-04-07T03:59:16.226Z,57.77
2019-04-07T04:01:54.076Z,54.70
2019-04-07T04:04:37.412Z,55.27
2019-04-07T04:07:20.121Z,53.30
2019-04-07T04:09:42.535Z,53.80
2019-04-07T04:12:14.995Z,56.07
2019-04-07T04:14:52.705Z,55.60
2019-04-07T04:17:22.908Z,57.03
2019-04-07T04:19:53.609Z,57.57
2019-04-07T04:22:23.063Z,54.90
2019-04-07T04:24:53.474Z,56.00
2019-04-07T04:27:23.849Z,56.13
2019-04-07T04:29:53.876Z,56.43
2019-04-07T04:32:25.303Z,56.60
2019-04-07T04:34:55.111Z,57.77
2019-04-07T04:37:37.640Z,59.13
2019-04-07T04:39:59.498Z,57.60
2019-04-07T04:42:28.879Z,58.63
2019-04-07T04:44:58.879Z,56.77
2019-04-07T04:47:28.390Z,56.87
2019-04-07T04:49:58.324Z,56.67
2019-04-07T04:52:27.841Z,56.27
2019-04-07T04:54:57.234Z,55.47
2019-04-07T04:57:27.125Z,56.03
2019-04-07T04:59:56.688Z,55.50
2019-04-07T05:02:29.008Z,55.27
2019-04-07T05:04:59.291Z,57.47
2019-04-07T05:07:28.930Z,54.77
2019-04-07T05:09:58.854Z,56.23
2019-04-07T05:12:29.958Z,55.73
2019-04-07T05:14:59.406Z,57.03
2019-04-07T05:17:28.871Z,54.67
2019-04-07T05:19:58.272Z,53.07
2019-04-07T05:22:27.987Z,53.57
2019-04-07T05:24:57.590Z,56.47
2019-04-07T05:27:27.665Z,52.83
2019-04-07T05:29:57.068Z,54.93
2019-04-07T05:32:26.827Z,54.93
2019-04-07T05:34:56.720Z,54.77
2019-04-07T05:37:29.500Z,53.83
2019-04-07T05:39:59.150Z,53.03
2019-04-07T05:42:28.880Z,54.90
2019-04-07T05:44:58.556Z,54.70
2019-04-07T05:47:28.071Z,54.13
2019-04-07T05:49:59.526Z,50.80
2019-04-07T05:52:28.552Z,49.67
2019-04-07T05:54:57.930Z,49.80
2019-04-07T05:57:30.881Z,46.33
2019-04-07T05:59:59.223Z,46.30
2019-04-07T06:02:31.269Z,45.27
2019-04-07T06:05:01.272Z,45.83
2019-04-07T06:07:32.533Z,44.53
2019-04-07T06:10:02.385Z,46.33
2019-04-07T06:12:32.642Z,46.37
2019-04-07T06:15:02.272Z,42.60
2019-04-07T06:17:31.777Z,44.45
2019-04-07T06:20:01.464Z,44.77
2019-04-07T06:22:32.626Z,43.20
2019-04-07T06:25:04.030Z,43.48
2019-04-07T06:27:33.636Z,43.92
2019-04-07T06:30:08.337Z,42.33
2019-04-07T06:32:39.781Z,43.33
2019-04-07T06:35:12.326Z,42.40
2019-04-07T06:37:41.872Z,41.98
2019-04-07T06:40:12.253Z,42.85
2019-04-07T06:42:45.740Z,41.85
2019-04-07T06:45:20.607Z,41.10
2019-04-07T06:47:53.452Z,41.40
2019-04-07T06:50:25.802Z,41.88
2019-04-07T06:52:57.596Z,39.70
2019-04-07T06:55:44.028Z,40.90
2019-04-07T06:58:24.308Z,39.38
2019-04-07T07:01:12.190Z,39.55
2019-04-07T07:03:46.500Z,39.48
2019-04-07T07:06:34.077Z,41.92
2019-04-07T07:09:09.451Z,42.43
2019-04-07T07:11:44.484Z,38.00
2019-04-07T07:14:38.063Z,40.83
2019-04-07T07:17:00.467Z,41.15
2019-04-07T07:19:37.001Z,41.98
2019-04-07T07:22:14.785Z,40.78
2019-04-07T07:24:42.715Z,39.83
2019-04-07T07:27:12.365Z,39.70
2019-04-07T07:29:45.480Z,41.70
2019-04-07T07:32:13.508Z,40.53
2019-04-07T07:34:43.372Z,39.30
2019-04-07T07:37:13.331Z,40.28
2019-04-07T07:39:45.129Z,41.23
2019-04-07T07:42:14.667Z,40.95
2019-04-07T07:44:44.288Z,40.23
2019-04-07T07:47:14.504Z,40.70
2019-04-07T07:49:44.189Z,41.13
2019-04-07T07:52:16.516Z,41.43
2019-04-07T07:54:46.053Z,40.40
2019-04-07T07:57:16.106Z,40.40
2019-04-07T07:59:47.175Z,40.05
2019-04-07T08:02:19.421Z,40.73
2019-04-07T08:04:47.797Z,39.15
2019-04-07T08:07:17.259Z,39.45
2019-04-07T08:09:46.994Z,37.95
2019-04-07T08:12:16.439Z,39.13
2019-04-07T08:14:49.729Z,38.80
2019-04-07T08:17:17.296Z,36.65
2019-04-07T08:19:46.802Z,37.73
2019-04-07T08:22:27.458Z,38.73
2019-04-07T08:24:51.109Z,36.75
2019-04-07T08:27:19.470Z,36.45
2019-04-07T08:29:48.902Z,35.30
2019-04-07T08:32:18.715Z,35.97
2019-04-07T08:34:48.104Z,35.50
2019-04-07T08:37:17.935Z,35.30
2019-04-07T08:39:47.583Z,35.03
2019-04-07T08:42:18.730Z,33.90
2019-04-07T08:44:48.128Z,34.50
2019-04-07T08:47:21.178Z,33.48
2019-04-07T08:49:49.495Z,33.18
2019-04-07T08:52:19.590Z,32.00
2019-04-07T08:54:51.423Z,32.03
2019-04-07T08:57:20.183Z,32.40
2019-04-07T08:59:49.640Z,32.38
2019-04-07T09:02:19.975Z,31.27
2019-04-07T09:04:51.248Z,31.48
2019-04-07T09:07:23.405Z,30.77
2019-04-07T09:09:51.712Z,29.98
2019-04-07T09:12:21.788Z,30.37
2019-04-07T09:14:51.423Z,29.70
2019-04-07T09:17:31.525Z,28.75
2019-04-07T09:20:10.797Z,29.95
2019-04-07T09:22:46.358Z,30.00
2019-04-07T09:25:26.274Z,29.23
2019-04-07T09:28:00.945Z,30.05
2019-04-07T09:30:34.147Z,27.80
2019-04-07T09:33:08.191Z,28.12
2019-04-07T09:35:48.639Z,27.37
2019-04-07T09:38:24.845Z,28.00
2019-04-07T09:40:55.956Z,27.58
2019-04-07T09:43:30.581Z,26.07
2019-04-07T09:46:03.415Z,25.77
2019-04-07T09:48:39.383Z,25.60
2019-04-07T09:51:11.150Z,25.15
2019-04-07T09:54:00.379Z,25.57
2019-04-07T09:56:49.738Z,24.12
2019-04-07T09:59:30.653Z,23.98
2019-04-07T10:02:11.390Z,24.95
2019-04-07T10:04:54.685Z,23.02
2019-04-07T10:07:34.880Z,24.52
2019-04-07T10:10:14.785Z,22.42
2019-04-07T10:12:46.091Z,22.00
2019-04-07T10:15:20.126Z,22.42
2019-04-07T10:17:52.847Z,21.93
2019-04-07T10:20:29.716Z,22.50
2019-04-07T10:23:03.856Z,22.17
2019-04-07T10:25:35.689Z,21.80
2019-04-07T10:28:13.748Z,19.48
2019-04-07T10:30:54.974Z,18.98
2019-04-07T10:33:39.004Z,19.70
2019-04-07T10:36:10.160Z,20.17
2019-04-07T10:38:41.470Z,19.15
2019-04-07T10:41:29.474Z,18.27
2019-04-07T10:44:01.593Z,17.32
2019-04-07T10:46:49.203Z,18.92
2019-04-07T10:49:27.152Z,19.45
2019-04-07T10:51:59.260Z,18.82
2019-04-07T10:54:33.725Z,18.55
2019-04-07T10:57:22.162Z,18.23
2019-04-07T10:59:55.923Z,17.57
2019-04-07T11:02:32.786Z,17.12
2019-04-07T11:05:19.115Z,16.93
2019-04-07T11:08:02.556Z,17.80
2019-04-07T11:10:50.718Z,17.85
2019-04-07T11:13:32.556Z,16.55
2019-04-07T11:16:06.707Z,16.82
2019-04-07T11:18:43.948Z,16.40
2019-04-07T11:21:15.508Z,15.48
2019-04-07T11:23:49.620Z,15.03
2019-04-07T11:26:20.891Z,14.87
2019-04-07T11:28:52.488Z,14.83
2019-04-07T11:31:23.641Z,14.13
2019-04-07T11:33:55.362Z,12.47
2019-04-07T11:36:26.798Z,14.03
2019-04-07T11:39:16.359Z,14.18
2019-04-07T11:41:48.209Z,14.58
2019-04-07T11:44:22.893Z,14.65
2019-04-07T11:46:57.518Z,14.55
2019-04-07T11:49:45.999Z,14.50
2019-04-07T11:52:23.585Z,13.08
2019-04-07T11:54:55.388Z,13.83
2019-04-07T11:57:27.113Z,12.78
2019-04-07T12:00:14.095Z,13.08
2019-04-07T12:02:49.344Z,14.25
2019-04-07T12:05:26.867Z,14.28
2019-04-07T12:08:15.016Z,13.65
2019-04-07T12:10:58.421Z,14.33
2019-04-07T12:13:25.443Z,13.50
2019-04-07T12:16:05.689Z,14.47
2019-04-07T12:18:53.163Z,15.48
2019-04-07T12:21:27.836Z,14.78
2019-04-07T12:24:03.233Z,14.07
2019-04-07T12:26:37.293Z,14.78
2019-04-07T12:29:12.868Z,14.65
2019-04-07T12:31:46.705Z,14.28
2019-04-07T12:34:20.550Z,13.70
2019-04-07T12:36:51.651Z,13.00
2019-04-07T12:39:25.997Z,12.78
2019-04-07T12:42:11.231Z,13.50
2019-04-07T12:44:59.576Z,13.30
2019-04-07T12:47:36.646Z,13.47
2019-04-07T12:50:27.271Z,14.05
2019-04-07T12:53:02.146Z,13.38
2019-04-07T12:55:56.944Z,13.70
2019-04-07T12:58:27.958Z,13.78
2019-04-07T13:01:06.952Z,13.63
2019-04-07T13:03:31.797Z,13.60
2019-04-07T13:06:06.822Z,13.05
2019-04-07T13:08:47.857Z,12.50
2019-04-07T13:11:39.689Z,13.90
2019-04-07T13:14:22.605Z,14.10
2019-04-07T13:17:02.777Z,14.43
2019-04-07T13:19:33.888Z,13.43
2019-04-07T13:22:08.115Z,13.38
2019-04-07T13:24:41.400Z,13.48
2019-04-07T13:27:15.552Z,13.55
2019-04-07T13:29:49.930Z,13.93
2019-04-07T13:32:39.380Z,13.08
2019-04-07T13:35:11.017Z,13.70
2019-04-07T13:37:46.936Z,13.88
2019-04-07T13:40:26.995Z,12.60
2019-04-07T13:43:01.534Z,13.48
2019-04-07T13:45:42.074Z,13.72
2019-04-07T13:48:24.460Z,12.80
2019-04-07T13:50:55.631Z,13.15
2019-04-07T13:53:38.979Z,13.00
2019-04-07T13:56:19.447Z,12.07
2019-04-07T13:58:59.786Z,12.60
2019-04-07T14:01:39.705Z,14.47
2019-04-07T14:04:12.041Z,13.35
2019-04-07T14:06:49.077Z,13.65
2019-04-07T14:09:22.315Z,13.72
2019-04-07T14:12:04.224Z,14.28
2019-04-07T14:17:30.902Z,14.65
2019-04-07T14:20:02.108Z,14.43
2019-04-07T14:22:39.884Z,13.70
2019-04-07T14:25:14.543Z,14.00
2019-04-07T14:28:02.487Z,14.10
2019-04-07T14:30:49.918Z,13.53
2019-04-07T14:33:24.157Z,13.58
2019-04-07T14:36:12.915Z,12.53
2019-04-07T14:38:43.963Z,13.22
2019-04-07T14:41:21.073Z,13.50
2019-04-07T14:44:07.219Z,12.88
2019-04-07T14:46:54.528Z,13.30
2019-04-07T14:49:31.811Z,14.47
2019-04-07T14:52:14.468Z,13.32
2019-04-07T14:54:59.849Z,13.55
2019-04-07T14:57:50.231Z,13.30
2019-04-07T15:00:25.517Z,14.00
2019-04-07T15:02:53.017Z,13.22
2019-04-07T15:05:25.431Z,14.35
2019-04-07T15:08:00.009Z,14.90
2019-04-07T15:10:45.069Z,15.40
2019-04-07T15:13:17.115Z,16.15
2019-04-07T15:15:49.326Z,15.13
2019-04-07T15:18:18.687Z,16.40
2019-04-07T15:20:48.493Z,16.07
2019-04-07T15:23:18.674Z,16.15
2019-04-07T15:25:48.318Z,15.95
2019-04-07T15:28:18.387Z,16.05
2019-04-07T15:30:49.564Z,16.73
2019-04-07T15:33:19.637Z,16.90
2019-04-07T15:35:50.458Z,16.62
2019-04-07T15:38:22.976Z,17.15
2019-04-07T15:40:51.734Z,15.90
2019-04-07T15:43:22.115Z,15.40
2019-04-07T15:45:52.241Z,17.20
2019-04-07T15:48:25.772Z,15.48
2019-04-07T15:50:52.966Z,13.50
2019-04-07T15:53:22.432Z,15.08
2019-04-07T15:56:01.798Z,15.23
2019-04-07T15:58:26.778Z,13.03
2019-04-07T16:00:55.315Z,12.95
2019-04-07T16:03:24.700Z,13.03
2019-04-07T16:05:54.519Z,14.10
2019-04-07T16:08:27.883Z,12.45
2019-04-07T16:10:55.747Z,14.10
2019-04-07T16:13:26.637Z,15.35
2019-04-07T16:15:56.257Z,14.33
2019-04-07T16:18:26.353Z,15.10
2019-04-07T16:20:56.378Z,13.60
2019-04-07T16:23:27.259Z,13.62
2019-04-07T16:25:58.361Z,13.72
2019-04-07T16:28:27.944Z,13.65
2019-04-07T16:30:58.245Z,14.47
2019-04-07T16:33:27.749Z,14.28
2019-04-07T16:35:57.963Z,13.62
2019-04-07T16:38:28.308Z,13.50
2019-04-07T16:40:58.767Z,12.93
2019-04-07T16:43:28.692Z,14.00
2019-04-07T16:45:59.647Z,13.10
2019-04-07T16:48:29.205Z,13.68
2019-04-07T16:51:02.064Z,13.70
2019-04-07T16:53:30.978Z,14.33
2019-04-07T16:56:00.923Z,14.13
2019-04-07T16:58:33.150Z,14.07
2019-04-07T17:01:01.704Z,14.00
2019-04-07T17:03:31.187Z,13.20
2019-04-07T17:06:02.033Z,13.55
2019-04-07T17:08:33.907Z,12.90
2019-04-07T17:11:07.608Z,13.13
2019-04-07T17:13:39.998Z,13.57
2019-04-07T17:16:10.136Z,13.22
2019-04-07T17:18:43.911Z,12.78
2019-04-07T17:21:18.214Z,12.88
2019-04-07T17:23:47.902Z,13.43
2019-04-07T17:26:18.138Z,13.25
2019-04-07T17:28:49.555Z,14.18
2019-04-07T17:31:18.912Z,13.20
2019-04-07T17:33:48.919Z,13.62
2019-04-07T17:36:21.658Z,12.82
2019-04-07T17:38:55.139Z,13.50
2019-04-07T17:41:26.126Z,15.08
2019-04-07T17:43:59.342Z,13.25
2019-04-07T17:46:47.108Z,13.68
2019-04-07T17:49:31.037Z,13.90
2019-04-07T17:52:14.233Z,14.03
2019-04-07T17:54:46.528Z,15.35
2019-04-07T17:57:36.596Z,15.05
2019-04-07T18:00:25.756Z,15.32
2019-04-07T18:03:07.480Z,16.30
2019-04-07T18:05:43.193Z,15.20
2019-04-07T18:08:26.438Z,15.38
2019-04-07T18:10:59.706Z,13.83
2019-04-07T18:13:41.989Z,15.45
2019-04-07T18:16:03.153Z,15.90
2019-04-07T18:18:46.289Z,15.55
2019-04-07T18:21:33.521Z,15.43
2019-04-07T18:24:21.366Z,15.75
2019-04-07T18:26:54.876Z,15.90
2019-04-07T18:29:42.844Z,15.65
2019-04-07T18:32:14.524Z,16.07
2019-04-07T18:34:49.386Z,16.57
2019-04-07T18:37:40.069Z,17.07
2019-04-07T18:40:13.210Z,16.57
2019-04-07T18:42:45.661Z,18.25
2019-04-07T18:45:16.776Z,17.35
2019-04-07T18:47:54.825Z,16.37
2019-04-07T18:50:28.640Z,17.80
2019-04-07T18:53:02.383Z,17.92
2019-04-07T18:55:52.552Z,18.42
2019-04-07T18:58:24.733Z,17.55
2019-04-07T19:01:07.319Z,17.65
2019-04-07T19:03:37.358Z,17.95
2019-04-07T19:06:10.450Z,18.55
2019-04-07T19:08:46.305Z,17.85
2019-04-07T19:11:26.137Z,18.30
2019-04-07T19:14:20.433Z,18.73
2019-04-07T19:16:36.737Z,19.07
2019-04-07T19:19:09.126Z,18.90
2019-04-07T19:21:43.467Z,20.13
2019-04-07T19:24:20.158Z,21.27
2019-04-07T19:27:11.988Z,20.20
2019-04-07T19:29:49.937Z,19.50
2019-04-07T19:32:25.427Z,19.95
2019-04-07T19:34:57.230Z,20.23
2019-04-07T19:37:34.639Z,20.53
2019-04-07T19:40:27.744Z,20.60
2019-04-07T19:42:57.455Z,20.72
2019-04-07T19:45:41.340Z,19.83
2019-04-07T19:48:13.519Z,20.37
2019-04-07T19:50:44.946Z,20.57
2019-04-07T19:53:16.292Z,21.53
2019-04-07T19:56:00.746Z,21.80
2019-04-07T19:58:49.356Z,21.17
2019-04-07T20:01:29.508Z,22.03
2019-04-07T20:04:03.762Z,20.80
2019-04-07T20:06:41.931Z,21.57
2019-04-07T20:09:25.685Z,22.97
2019-04-07T20:12:00.575Z,22.15
2019-04-07T20:14:44.981Z,23.18
2019-04-07T20:17:19.727Z,22.13
2019-04-07T20:19:49.552Z,20.50
2019-04-07T20:22:22.632Z,21.53
2019-04-07T20:25:02.201Z,20.37
2019-04-07T20:27:36.400Z,20.37
2019-04-07T20:30:11.266Z,20.23
2019-04-07T20:32:43.405Z,21.83
2019-04-07T20:35:29.845Z,22.37
2019-04-07T20:38:03.743Z,20.40
2019-04-07T20:40:41.993Z,20.90
2019-04-07T20:43:25.820Z,22.10
2019-04-07T20:46:01.105Z,21.60
2019-04-07T20:48:36.790Z,21.53
2019-04-07T20:51:08.426Z,21.87
2019-04-07T20:53:39.642Z,21.37
2019-04-07T20:56:12.870Z,21.80
2019-04-07T20:58:56.709Z,21.43
2019-04-07T21:01:43.872Z,21.87
2019-04-07T21:04:25.967Z,22.90
2019-04-07T21:07:03.458Z,20.67
2019-04-07T21:09:50.659Z,21.17
2019-04-07T21:12:32.282Z,22.00
2019-04-07T21:15:20.812Z,21.00
2019-04-07T21:17:54.458Z,21.07
2019-04-07T21:20:28.863Z,20.73
2019-04-07T21:23:03.090Z,21.48
2019-04-07T21:25:41.339Z,20.90
2019-04-07T21:28:16.078Z,21.13
2019-04-07T21:30:47.142Z,22.50
2019-04-07T21:33:22.395Z,21.13
2019-04-07T21:35:50.984Z,21.20
2019-04-07T21:38:26.148Z,20.90
2019-04-07T21:41:00.536Z,21.47
2019-04-07T21:43:46.848Z,21.03
2019-04-07T21:46:22.401Z,20.23
2019-04-07T21:49:00.693Z,21.30
2019-04-07T21:51:35.276Z,20.33
2019-04-07T21:54:24.726Z,20.23
2019-04-07T21:56:56.044Z,20.80
2019-04-07T21:59:39.623Z,21.63
2019-04-07T22:02:27.015Z,19.27
2019-04-07T22:05:09.355Z,19.70
2019-04-07T22:07:43.992Z,19.23
2019-04-07T22:10:19.397Z,20.13
2019-04-07T22:12:45.893Z,19.63
2019-04-07T22:15:15.509Z,20.23
2019-04-07T22:17:45.731Z,19.70
2019-04-07T22:20:18.780Z,20.20
2019-04-07T22:22:47.176Z,20.57
2019-04-07T22:25:20.585Z,20.80
2019-04-07T22:27:52.532Z,19.97
2019-04-07T22:30:22.038Z,20.33
2019-04-07T22:32:52.855Z,20.40
2019-04-07T22:35:22.703Z,21.00
2019-04-07T22:37:52.693Z,20.63
2019-04-07T22:40:23.596Z,20.97
2019-04-07T22:42:53.104Z,21.23
2019-04-07T22:45:26.417Z,20.40
2019-04-07T22:47:53.803Z,21.03
2019-04-07T22:50:23.438Z,21.60
2019-04-07T22:52:53.320Z,21.70
2019-04-07T22:55:22.907Z,20.67
2019-04-07T22:57:52.334Z,21.60
2019-04-07T23:00:25.336Z,21.80
2019-04-07T23:02:55.306Z,20.47
2019-04-07T23:05:25.907Z,20.90
2019-04-07T23:07:56.732Z,21.07
2019-04-07T23:10:26.224Z,22.03
2019-04-07T23:12:55.613Z,21.63
2019-04-07T23:15:37.253Z,22.83
2019-04-07T23:17:56.134Z,23.33
2019-04-07T23:20:25.593Z,23.23
2019-04-07T23:22:55.064Z,22.77
2019-04-07T23:25:26.233Z,24.00
2019-04-07T23:27:56.370Z,22.50
2019-04-07T23:30:28.684Z,24.47
2019-04-07T23:32:58.241Z,24.03
2019-04-07T23:35:28.684Z,23.73
2019-04-07T23:37:58.243Z,23.33
2019-04-07T23:40:28.045Z,24.60
2019-04-07T23:42:57.541Z,23.93
2019-04-07T23:45:27.387Z,23.33
2019-04-07T23:47:57.093Z,23.23
2019-04-07T23:50:29.805Z,23.63
2019-04-07T23:53:02.322Z,26.00
2019-04-07T23:55:31.795Z,26.27
2019-04-07T23:58:01.243Z,26.17
